sensor_id;sensor_type;location;lat;lon;timestamp;pressure;altitude;pressure_sealevel;temperature;humidity
61697;BME280;47610;52.252;20.922;2023-03-18T00:02:22;100738.86;;;3.72;81.67
61697;BME280;47610;52.252;20.922;2023-03-18T00:07:28;100739.05;;;3.68;81.49
61697;BME280;47610;52.252;20.922;2023-03-18T00:12:31;100734.63;;;3.66;81.50
61697;BME280;47610;52.252;20.922;2023-03-18T00:17:34;100733.36;;;3.63;81.72
61697;BME280;47610;52.252;20.922;2023-03-18T00:22:38;100738.19;;;3.60;81.74
61697;BME280;47610;52.252;20.922;2023-03-18T00:27:43;100731.60;;;3.57;81.79
61697;BME280;47610;52.252;20.922;2023-03-18T00:32:48;100729.04;;;3.52;82.02
61697;BME280;47610;52.252;20.922;2023-03-18T00:37:51;100715.08;;;3.45;82.37
61697;BME280;47610;52.252;20.922;2023-03-18T00:42:54;100716.88;;;3.43;82.42
61697;BME280;47610;52.252;20.922;2023-03-18T00:47:57;100705.65;;;3.38;82.51
61697;BME280;47610;52.252;20.922;2023-03-18T00:53:01;100702.58;;;3.36;82.48
61697;BME280;47610;52.252;20.922;2023-03-18T00:58:04;100699.20;;;3.34;82.24
61697;BME280;47610;52.252;20.922;2023-03-18T01:03:08;100691.46;;;3.34;82.00
61697;BME280;47610;52.252;20.922;2023-03-18T01:08:11;100686.02;;;3.32;81.60
61697;BME280;47610;52.252;20.922;2023-03-18T01:13:15;100686.66;;;3.31;81.30
61697;BME280;47610;52.252;20.922;2023-03-18T01:18:19;100677.39;;;3.28;81.43
61697;BME280;47610;52.252;20.922;2023-03-18T01:23:23;100671.69;;;3.23;81.64
61697;BME280;47610;52.252;20.922;2023-03-18T01:28:28;100668.23;;;3.19;81.64
61697;BME280;47610;52.252;20.922;2023-03-18T01:33:31;100664.75;;;3.16;81.54
61697;BME280;47610;52.252;20.922;2023-03-18T01:38:34;100663.86;;;3.11;81.53
61697;BME280;47610;52.252;20.922;2023-03-18T01:43:40;100662.36;;;3.09;81.63
61697;BME280;47610;52.252;20.922;2023-03-18T01:48:43;100664.47;;;3.08;81.51
61697;BME280;47610;52.252;20.922;2023-03-18T01:53:48;100653.31;;;3.06;81.21
61697;BME280;47610;52.252;20.922;2023-03-18T01:58:54;100657.37;;;3.04;80.82
61697;BME280;47610;52.252;20.922;2023-03-18T02:03:58;100648.06;;;3.02;80.73
61697;BME280;47610;52.252;20.922;2023-03-18T02:09:02;100661.15;;;3.03;80.92
61697;BME280;47610;52.252;20.922;2023-03-18T02:14:07;100662.85;;;3.00;80.95
61697;BME280;47610;52.252;20.922;2023-03-18T02:19:17;100659.79;;;3.01;81.12
61697;BME280;47610;52.252;20.922;2023-03-18T02:24:32;100662.55;;;3.00;81.53
61697;BME280;47610;52.252;20.922;2023-03-18T02:29:37;100655.90;;;2.99;81.43
61697;BME280;47610;52.252;20.922;2023-03-18T02:34:43;100655.30;;;2.97;81.47
61697;BME280;47610;52.252;20.922;2023-03-18T02:39:47;100650.59;;;2.95;81.67
61697;BME280;47610;52.252;20.922;2023-03-18T02:44:50;100655.02;;;2.93;81.81
61697;BME280;47610;52.252;20.922;2023-03-18T02:49:53;100655.55;;;2.89;82.02
61697;BME280;47610;52.252;20.922;2023-03-18T02:54:57;100651.71;;;2.87;82.64
61697;BME280;47610;52.252;20.922;2023-03-18T03:00:00;100644.90;;;2.85;82.82
61697;BME280;47610;52.252;20.922;2023-03-18T03:05:03;100639.94;;;2.84;82.98
61697;BME280;47610;52.252;20.922;2023-03-18T03:10:08;100634.04;;;2.83;83.15
61697;BME280;47610;52.252;20.922;2023-03-18T03:15:13;100626.90;;;2.80;83.07
61697;BME280;47610;52.252;20.922;2023-03-18T03:20:16;100628.76;;;2.78;82.93
61697;BME280;47610;52.252;20.922;2023-03-18T03:25:20;100628.69;;;2.77;82.63
61697;BME280;47610;52.252;20.922;2023-03-18T03:30:23;100630.98;;;2.77;82.09
61697;BME280;47610;52.252;20.922;2023-03-18T03:35:27;100624.41;;;2.77;81.66
61697;BME280;47610;52.252;20.922;2023-03-18T03:40:31;100628.15;;;2.75;81.35
61697;BME280;47610;52.252;20.922;2023-03-18T03:45:34;100621.52;;;2.74;81.15
61697;BME280;47610;52.252;20.922;2023-03-18T03:50:39;100629.17;;;2.70;80.87
61697;BME280;47610;52.252;20.922;2023-03-18T03:55:42;100630.04;;;2.67;80.91
61697;BME280;47610;52.252;20.922;2023-03-18T04:00:45;100632.77;;;2.63;80.87
61697;BME280;47610;52.252;20.922;2023-03-18T04:05:48;100641.98;;;2.62;80.77
61697;BME280;47610;52.252;20.922;2023-03-18T04:10:52;100637.68;;;2.60;80.38
61697;BME280;47610;52.252;20.922;2023-03-18T04:15:55;100642.15;;;2.60;80.14
61697;BME280;47610;52.252;20.922;2023-03-18T04:20:58;100639.61;;;2.58;80.01
61697;BME280;47610;52.252;20.922;2023-03-18T04:26:01;100639.34;;;2.56;79.67
61697;BME280;47610;52.252;20.922;2023-03-18T04:31:05;100640.02;;;2.53;79.64
61697;BME280;47610;52.252;20.922;2023-03-18T04:36:10;100645.55;;;2.50;79.54
61697;BME280;47610;52.252;20.922;2023-03-18T04:41:13;100652.54;;;2.49;79.84
61697;BME280;47610;52.252;20.922;2023-03-18T04:46:17;100651.92;;;2.44;79.76
61697;BME280;47610;52.252;20.922;2023-03-18T04:51:20;100647.73;;;2.39;79.88
61697;BME280;47610;52.252;20.922;2023-03-18T04:56:23;100653.13;;;2.38;80.03
61697;BME280;47610;52.252;20.922;2023-03-18T05:01:27;100649.34;;;2.44;79.93
61697;BME280;47610;52.252;20.922;2023-03-18T05:06:31;100647.92;;;2.51;79.33
61697;BME280;47610;52.252;20.922;2023-03-18T05:11:35;100643.25;;;2.60;78.82
61697;BME280;47610;52.252;20.922;2023-03-18T05:16:40;100648.28;;;2.73;78.11
61697;BME280;47610;52.252;20.922;2023-03-18T05:21:44;100646.02;;;2.88;77.22
61697;BME280;47610;52.252;20.922;2023-03-18T05:26:48;100646.13;;;3.02;75.92
61697;BME280;47610;52.252;20.922;2023-03-18T05:31:51;100645.27;;;3.17;75.19
61697;BME280;47610;52.252;20.922;2023-03-18T05:36:54;100646.65;;;3.30;74.43
61697;BME280;47610;52.252;20.922;2023-03-18T05:41:57;100641.23;;;3.38;73.41
61697;BME280;47610;52.252;20.922;2023-03-18T05:47:01;100638.24;;;3.49;72.97
61697;BME280;47610;52.252;20.922;2023-03-18T05:52:06;100637.91;;;3.64;72.15
61697;BME280;47610;52.252;20.922;2023-03-18T05:57:08;100633.54;;;3.74;70.78
61697;BME280;47610;52.252;20.922;2023-03-18T06:02:12;100635.83;;;3.92;70.23
61697;BME280;47610;52.252;20.922;2023-03-18T06:07:16;100639.87;;;4.13;69.16
61697;BME280;47610;52.252;20.922;2023-03-18T06:12:19;100632.79;;;4.42;68.03
61697;BME280;47610;52.252;20.922;2023-03-18T06:17:23;100632.14;;;4.90;65.97
61697;BME280;47610;52.252;20.922;2023-03-18T06:22:26;100634.73;;;5.76;62.70
61697;BME280;47610;52.252;20.922;2023-03-18T06:27:31;100636.89;;;7.33;56.54
61697;BME280;47610;52.252;20.922;2023-03-18T06:32:34;100643.13;;;9.63;46.70
61697;BME280;47610;52.252;20.922;2023-03-18T06:37:38;100642.19;;;10.70;40.34
61697;BME280;47610;52.252;20.922;2023-03-18T06:42:41;100650.50;;;11.69;36.55
61697;BME280;47610;52.252;20.922;2023-03-18T06:47:45;100641.61;;;12.52;33.21
61697;BME280;47610;52.252;20.922;2023-03-18T06:52:49;100645.05;;;13.15;32.53
61697;BME280;47610;52.252;20.922;2023-03-18T06:57:52;100644.52;;;13.06;31.16
61697;BME280;47610;52.252;20.922;2023-03-18T07:02:55;100651.71;;;12.58;31.68
61697;BME280;47610;52.252;20.922;2023-03-18T07:07:59;100652.38;;;13.81;30.04
61697;BME280;47610;52.252;20.922;2023-03-18T07:13:01;100652.88;;;16.33;27.29
61697;BME280;47610;52.252;20.922;2023-03-18T07:18:04;100655.31;;;18.34;24.32
61697;BME280;47610;52.252;20.922;2023-03-18T07:23:08;100665.23;;;20.05;22.10
61697;BME280;47610;52.252;20.922;2023-03-18T07:28:11;100671.75;;;21.65;20.19
61697;BME280;47610;52.252;20.922;2023-03-18T07:33:15;100676.56;;;22.95;18.92
61697;BME280;47610;52.252;20.922;2023-03-18T07:38:18;100682.81;;;24.08;17.94
61697;BME280;47610;52.252;20.922;2023-03-18T07:43:22;100682.67;;;24.56;16.59
61697;BME280;47610;52.252;20.922;2023-03-18T07:48:23;100680.77;;;24.51;16.63
61697;BME280;47610;52.252;20.922;2023-03-18T07:53:27;100683.99;;;24.45;16.72
61697;BME280;47610;52.252;20.922;2023-03-18T07:58:29;100670.86;;;22.96;16.65
61697;BME280;47610;52.252;20.922;2023-03-18T08:03:32;100672.67;;;21.86;17.53
61697;BME280;47610;52.252;20.922;2023-03-18T08:08:35;100665.53;;;22.51;17.13
61697;BME280;47610;52.252;20.922;2023-03-18T08:13:39;100666.98;;;23.19;16.80
61697;BME280;47610;52.252;20.922;2023-03-18T08:18:43;100667.98;;;23.92;16.65
61697;BME280;47610;52.252;20.922;2023-03-18T08:23:47;100666.09;;;25.80;15.79
61697;BME280;47610;52.252;20.922;2023-03-18T08:28:51;100664.50;;;27.83;14.29
61697;BME280;47610;52.252;20.922;2023-03-18T08:33:55;100672.95;;;29.39;13.31
61697;BME280;47610;52.252;20.922;2023-03-18T08:38:58;100663.17;;;29.95;12.15
61697;BME280;47610;52.252;20.922;2023-03-18T08:44:04;100663.57;;;29.95;12.10
61697;BME280;47610;52.252;20.922;2023-03-18T08:49:09;100651.97;;;30.51;12.16
61697;BME280;47610;52.252;20.922;2023-03-18T08:54:12;100652.98;;;31.41;11.92
61697;BME280;47610;52.252;20.922;2023-03-18T08:59:15;100648.90;;;32.58;11.51
61697;BME280;47610;52.252;20.922;2023-03-18T09:04:20;100646.55;;;32.58;10.92
61697;BME280;47610;52.252;20.922;2023-03-18T09:09:23;100634.37;;;32.22;11.14
61697;BME280;47610;52.252;20.922;2023-03-18T09:14:27;100631.48;;;31.90;11.02
61697;BME280;47610;52.252;20.922;2023-03-18T09:19:32;100630.59;;;32.05;10.82
61697;BME280;47610;52.252;20.922;2023-03-18T09:24:35;100628.67;;;31.67;11.06
61697;BME280;47610;52.252;20.922;2023-03-18T09:29:39;100624.33;;;31.39;11.03
61697;BME280;47610;52.252;20.922;2023-03-18T09:34:42;100624.75;;;31.35;10.79
61697;BME280;47610;52.252;20.922;2023-03-18T09:39:46;100615.91;;;30.96;11.03
61697;BME280;47610;52.252;20.922;2023-03-18T09:44:55;100611.23;;;30.65;11.37
61697;BME280;47610;52.252;20.922;2023-03-18T09:50:18;100606.70;;;30.63;11.52
61697;BME280;47610;52.252;20.922;2023-03-18T09:55:28;100602.02;;;28.98;11.72
61697;BME280;47610;52.252;20.922;2023-03-18T10:00:36;100602.20;;;28.61;12.44
61697;BME280;47610;52.252;20.922;2023-03-18T10:05:48;100587.34;;;28.26;12.58
61697;BME280;47610;52.252;20.922;2023-03-18T10:10:53;100584.02;;;27.90;12.77
61697;BME280;47610;52.252;20.922;2023-03-18T10:15:58;100586.50;;;27.59;12.56
61697;BME280;47610;52.252;20.922;2023-03-18T10:21:13;100574.64;;;26.74;12.65
61697;BME280;47610;52.252;20.922;2023-03-18T10:26:24;100575.02;;;26.42;13.45
61697;BME280;47610;52.252;20.922;2023-03-18T10:31:46;100567.25;;;26.06;13.77
61697;BME280;47610;52.252;20.922;2023-03-18T10:36:58;100563.30;;;25.42;14.63
61697;BME280;47610;52.252;20.922;2023-03-18T10:42:19;100569.86;;;25.24;14.48
61697;BME280;47610;52.252;20.922;2023-03-18T10:47:25;100566.81;;;24.60;14.45
61697;BME280;47610;52.252;20.922;2023-03-18T10:52:34;100556.58;;;23.08;15.16
61697;BME280;47610;52.252;20.922;2023-03-18T10:57:40;100549.98;;;20.65;16.65
61697;BME280;47610;52.252;20.922;2023-03-18T11:02:43;100537.86;;;19.17;18.32
61697;BME280;47610;52.252;20.922;2023-03-18T11:07:59;100537.08;;;18.19;19.48
61697;BME280;47610;52.252;20.922;2023-03-18T11:13:04;100523.77;;;17.31;20.36
61697;BME280;47610;52.252;20.922;2023-03-18T11:18:09;100518.66;;;16.58;21.48
61697;BME280;47610;52.252;20.922;2023-03-18T11:23:18;100513.43;;;15.93;22.46
61697;BME280;47610;52.252;20.922;2023-03-18T11:28:30;100512.59;;;15.70;22.91
61697;BME280;47610;52.252;20.922;2023-03-18T11:33:34;100508.17;;;15.44;22.82
61697;BME280;47610;52.252;20.922;2023-03-18T11:38:38;100500.42;;;15.01;23.33
61697;BME280;47610;52.252;20.922;2023-03-18T11:43:56;100492.45;;;14.72;23.90
61697;BME280;47610;52.252;20.922;2023-03-18T11:48:59;100490.88;;;14.71;24.25
61697;BME280;47610;52.252;20.922;2023-03-18T11:54:34;100489.26;;;14.64;24.47
61697;BME280;47610;52.252;20.922;2023-03-18T11:59:50;100486.02;;;14.41;24.87
61697;BME280;47610;52.252;20.922;2023-03-18T12:05:10;100478.99;;;14.29;25.28
61697;BME280;47610;52.252;20.922;2023-03-18T12:10:24;100475.73;;;14.16;25.48
61697;BME280;47610;52.252;20.922;2023-03-18T12:15:39;100475.80;;;13.97;25.62
61697;BME280;47610;52.252;20.922;2023-03-18T12:20:50;100477.92;;;13.83;25.81
61697;BME280;47610;52.252;20.922;2023-03-18T12:25:59;100478.74;;;13.78;26.06
61697;BME280;47610;52.252;20.922;2023-03-18T12:31:20;100468.42;;;13.62;26.51
61697;BME280;47610;52.252;20.922;2023-03-18T12:36:37;100462.29;;;13.53;26.61
61697;BME280;47610;52.252;20.922;2023-03-18T12:41:50;100453.17;;;13.41;26.99
61697;BME280;47610;52.252;20.922;2023-03-18T12:47:02;100451.63;;;13.35;27.27
61697;BME280;47610;52.252;20.922;2023-03-18T12:52:12;100438.10;;;13.38;27.49
61697;BME280;47610;52.252;20.922;2023-03-18T12:57:23;100438.16;;;13.38;27.55
61697;BME280;47610;52.252;20.922;2023-03-18T13:02:42;100441.09;;;13.33;27.70
61697;BME280;47610;52.252;20.922;2023-03-18T13:07:51;100439.36;;;13.22;27.90
61697;BME280;47610;52.252;20.922;2023-03-18T13:13:00;100436.73;;;13.12;28.36
61697;BME280;47610;52.252;20.922;2023-03-18T13:18:14;100440.95;;;13.05;28.76
61697;BME280;47610;52.252;20.922;2023-03-18T13:23:31;100439.34;;;13.04;28.47
61697;BME280;47610;52.252;20.922;2023-03-18T13:29:14;100432.83;;;12.99;28.57
61697;BME280;47610;52.252;20.922;2023-03-18T13:40:27;100411.02;;;12.96;28.95
61697;BME280;47610;52.252;20.922;2023-03-18T13:45:40;100412.55;;;12.92;29.20
61697;BME280;47610;52.252;20.922;2023-03-18T13:50:45;100403.52;;;12.83;29.22
61697;BME280;47610;52.252;20.922;2023-03-18T13:55:51;100398.06;;;12.82;29.05
61697;BME280;47610;52.252;20.922;2023-03-18T14:01:13;100401.94;;;12.68;29.19
61697;BME280;47610;52.252;20.922;2023-03-18T14:06:23;100396.69;;;12.54;29.76
61697;BME280;47610;52.252;20.922;2023-03-18T14:11:48;100390.72;;;12.48;30.01
61697;BME280;47610;52.252;20.922;2023-03-18T14:16:56;100387.14;;;12.53;30.41
61697;BME280;47610;52.252;20.922;2023-03-18T14:22:12;100379.88;;;12.58;29.39
61697;BME280;47610;52.252;20.922;2023-03-18T14:27:18;100372.42;;;12.58;29.20
61697;BME280;47610;52.252;20.922;2023-03-18T14:32:39;100369.17;;;12.62;29.85
61697;BME280;47610;52.252;20.922;2023-03-18T14:38:00;100370.35;;;12.68;29.62
61697;BME280;47610;52.252;20.922;2023-03-18T14:43:10;100364.79;;;12.65;29.01
61697;BME280;47610;52.252;20.922;2023-03-18T14:48:19;100360.80;;;12.55;28.49
61697;BME280;47610;52.252;20.922;2023-03-18T14:53:28;100362.71;;;12.43;29.34
61697;BME280;47610;52.252;20.922;2023-03-18T14:58:35;100361.30;;;12.37;29.88
61697;BME280;47610;52.252;20.922;2023-03-18T15:03:37;100355.07;;;12.32;30.13
61697;BME280;47610;52.252;20.922;2023-03-18T15:08:49;100356.98;;;12.18;30.34
61697;BME280;47610;52.252;20.922;2023-03-18T15:13:56;100355.30;;;12.00;30.90
61697;BME280;47610;52.252;20.922;2023-03-18T15:19:00;100353.48;;;11.86;31.03
61697;BME280;47610;52.252;20.922;2023-03-18T15:24:07;100354.65;;;11.76;31.42
61697;BME280;47610;52.252;20.922;2023-03-18T15:29:28;100350.56;;;11.64;31.92
61697;BME280;47610;52.252;20.922;2023-03-18T15:34:32;100348.35;;;11.55;32.23
61697;BME280;47610;52.252;20.922;2023-03-18T15:39:37;100350.41;;;11.49;32.84
61697;BME280;47610;52.252;20.922;2023-03-18T15:44:41;100351.99;;;11.41;33.97
61697;BME280;47610;52.252;20.922;2023-03-18T15:49:49;100355.44;;;11.33;34.69
61697;BME280;47610;52.252;20.922;2023-03-18T15:54:54;100360.64;;;11.27;35.38
61697;BME280;47610;52.252;20.922;2023-03-18T15:59:58;100358.50;;;11.22;36.11
61697;BME280;47610;52.252;20.922;2023-03-18T16:05:14;100362.93;;;11.17;36.78
61697;BME280;47610;52.252;20.922;2023-03-18T16:10:22;100364.38;;;11.08;37.15
61697;BME280;47610;52.252;20.922;2023-03-18T16:15:26;100366.11;;;11.00;37.91
61697;BME280;47610;52.252;20.922;2023-03-18T16:20:31;100365.36;;;10.91;38.71
61697;BME280;47610;52.252;20.922;2023-03-18T16:25:35;100378.48;;;10.82;39.00
61697;BME280;47610;52.252;20.922;2023-03-18T16:30:38;100383.02;;;10.73;39.86
61697;BME280;47610;52.252;20.922;2023-03-18T16:35:41;100382.52;;;10.64;40.45
61697;BME280;47610;52.252;20.922;2023-03-18T16:40:45;100388.14;;;10.54;40.94
61697;BME280;47610;52.252;20.922;2023-03-18T16:45:49;100390.17;;;10.47;41.22
61697;BME280;47610;52.252;20.922;2023-03-18T16:50:52;100392.53;;;10.39;41.67
61697;BME280;47610;52.252;20.922;2023-03-18T16:55:58;100393.74;;;10.34;41.59
61697;BME280;47610;52.252;20.922;2023-03-18T17:01:02;100395.21;;;10.29;41.65
61697;BME280;47610;52.252;20.922;2023-03-18T17:06:07;100392.97;;;10.22;42.03
61697;BME280;47610;52.252;20.922;2023-03-18T17:11:10;100395.67;;;10.19;42.21
61697;BME280;47610;52.252;20.922;2023-03-18T17:16:18;100399.29;;;10.15;42.27
61697;BME280;47610;52.252;20.922;2023-03-18T17:21:22;100399.30;;;10.13;42.48
61697;BME280;47610;52.252;20.922;2023-03-18T17:26:25;100397.52;;;10.12;42.80
61697;BME280;47610;52.252;20.922;2023-03-18T17:31:28;100402.14;;;10.09;42.97
61697;BME280;47610;52.252;20.922;2023-03-18T17:36:32;100408.25;;;10.08;43.00
61697;BME280;47610;52.252;20.922;2023-03-18T17:41:35;100410.34;;;10.08;42.88
61697;BME280;47610;52.252;20.922;2023-03-18T17:46:38;100404.77;;;10.03;43.07
61697;BME280;47610;52.252;20.922;2023-03-18T17:51:42;100415.94;;;10.04;43.10
61697;BME280;47610;52.252;20.922;2023-03-18T17:56:45;100412.64;;;10.02;43.03
61697;BME280;47610;52.252;20.922;2023-03-18T18:01:50;100413.23;;;10.00;42.90
61697;BME280;47610;52.252;20.922;2023-03-18T18:06:53;100405.35;;;9.97;43.02
61697;BME280;47610;52.252;20.922;2023-03-18T18:11:56;100401.17;;;9.95;43.14
61697;BME280;47610;52.252;20.922;2023-03-18T18:16:59;100401.55;;;9.94;43.19
61697;BME280;47610;52.252;20.922;2023-03-18T18:22:03;100397.66;;;9.92;43.52
61697;BME280;47610;52.252;20.922;2023-03-18T18:27:10;100391.69;;;9.86;43.85
61697;BME280;47610;52.252;20.922;2023-03-18T18:32:13;100395.64;;;9.84;44.24
61697;BME280;47610;52.252;20.922;2023-03-18T18:37:16;100390.41;;;9.79;44.83
61697;BME280;47610;52.252;20.922;2023-03-18T18:42:20;100387.48;;;9.72;45.31
61697;BME280;47610;52.252;20.922;2023-03-18T18:47:23;100388.23;;;9.72;45.66
61697;BME280;47610;52.252;20.922;2023-03-18T18:52:26;100389.70;;;9.67;45.91
61697;BME280;47610;52.252;20.922;2023-03-18T18:57:31;100392.75;;;9.60;46.70
61697;BME280;47610;52.252;20.922;2023-03-18T19:02:36;100395.92;;;9.54;47.01
61697;BME280;47610;52.252;20.922;2023-03-18T19:07:41;100395.19;;;9.49;47.63
61697;BME280;47610;52.252;20.922;2023-03-18T19:12:44;100403.46;;;9.43;48.39
61697;BME280;47610;52.252;20.922;2023-03-18T19:17:48;100399.04;;;9.36;48.61
61697;BME280;47610;52.252;20.922;2023-03-18T19:22:51;100396.46;;;9.30;49.33
61697;BME280;47610;52.252;20.922;2023-03-18T19:27:55;100391.98;;;9.24;50.10
61697;BME280;47610;52.252;20.922;2023-03-18T19:32:58;100398.70;;;9.17;50.88
61697;BME280;47610;52.252;20.922;2023-03-18T19:38:03;100402.64;;;9.12;51.39
61697;BME280;47610;52.252;20.922;2023-03-18T19:43:14;100404.04;;;9.09;52.31
61697;BME280;47610;52.252;20.922;2023-03-18T19:48:20;100406.00;;;9.06;53.42
61697;BME280;47610;52.252;20.922;2023-03-18T19:53:26;100400.38;;;9.03;53.45
61697;BME280;47610;52.252;20.922;2023-03-18T19:58:29;100397.71;;;9.01;53.64
61697;BME280;47610;52.252;20.922;2023-03-18T20:03:34;100399.61;;;8.96;54.41
61697;BME280;47610;52.252;20.922;2023-03-18T20:08:37;100398.60;;;8.90;54.83
61697;BME280;47610;52.252;20.922;2023-03-18T20:13:41;100396.04;;;8.85;55.26
61697;BME280;47610;52.252;20.922;2023-03-18T20:18:43;100390.17;;;8.81;55.77
61697;BME280;47610;52.252;20.922;2023-03-18T20:23:47;100388.52;;;8.77;55.99
61697;BME280;47610;52.252;20.922;2023-03-18T20:28:51;100390.97;;;8.76;56.52
61697;BME280;47610;52.252;20.922;2023-03-18T20:33:54;100389.21;;;8.75;57.04
61697;BME280;47610;52.252;20.922;2023-03-18T20:38:57;100387.45;;;8.68;57.13
61697;BME280;47610;52.252;20.922;2023-03-18T20:44:01;100394.34;;;8.65;57.50
61697;BME280;47610;52.252;20.922;2023-03-18T20:49:04;100393.95;;;8.57;58.02
61697;BME280;47610;52.252;20.922;2023-03-18T20:54:15;100396.31;;;8.50;58.74
61697;BME280;47610;52.252;20.922;2023-03-18T20:59:20;100396.14;;;8.42;59.78
61697;BME280;47610;52.252;20.922;2023-03-18T21:04:23;100395.42;;;8.34;60.57
61697;BME280;47610;52.252;20.922;2023-03-18T21:09:26;100395.16;;;8.30;61.37
61697;BME280;47610;52.252;20.922;2023-03-18T21:14:30;100393.46;;;8.22;61.58
61697;BME280;47610;52.252;20.922;2023-03-18T21:19:33;100391.04;;;8.16;61.84
61697;BME280;47610;52.252;20.922;2023-03-18T21:24:36;100388.85;;;8.12;62.63
61697;BME280;47610;52.252;20.922;2023-03-18T21:29:40;100387.45;;;8.08;62.73
61697;BME280;47610;52.252;20.922;2023-03-18T21:34:44;100390.55;;;8.06;63.07
61697;BME280;47610;52.252;20.922;2023-03-18T21:39:48;100388.29;;;8.04;63.33
61697;BME280;47610;52.252;20.922;2023-03-18T21:44:53;100387.77;;;8.02;63.69
61697;BME280;47610;52.252;20.922;2023-03-18T21:49:56;100381.44;;;7.98;63.92
61697;BME280;47610;52.252;20.922;2023-03-18T21:55:00;100380.84;;;7.95;63.91
61697;BME280;47610;52.252;20.922;2023-03-18T22:00:09;100381.04;;;7.93;64.25
61697;BME280;47610;52.252;20.922;2023-03-18T22:05:17;100371.32;;;7.86;64.44
61697;BME280;47610;52.252;20.922;2023-03-18T22:10:22;100374.83;;;7.86;64.57
61697;BME280;47610;52.252;20.922;2023-03-18T22:15:38;100381.27;;;7.83;64.87
61697;BME280;47610;52.252;20.922;2023-03-18T22:20:42;100374.77;;;7.76;64.90
61697;BME280;47610;52.252;20.922;2023-03-18T22:25:46;100379.20;;;7.74;65.49
61697;BME280;47610;52.252;20.922;2023-03-18T22:30:50;100381.48;;;7.69;66.11
61697;BME280;47610;52.252;20.922;2023-03-18T22:35:54;100378.73;;;7.62;66.56
61697;BME280;47610;52.252;20.922;2023-03-18T22:40:58;100387.59;;;7.56;66.82
61697;BME280;47610;52.252;20.922;2023-03-18T22:46:03;100387.35;;;7.51;67.21
61697;BME280;47610;52.252;20.922;2023-03-18T22:51:09;100388.77;;;7.45;67.55
61697;BME280;47610;52.252;20.922;2023-03-18T22:56:16;100386.10;;;7.39;67.59
61697;BME280;47610;52.252;20.922;2023-03-18T23:01:21;100386.24;;;7.32;68.36
61697;BME280;47610;52.252;20.922;2023-03-18T23:06:27;100376.59;;;7.22;68.91
61697;BME280;47610;52.252;20.922;2023-03-18T23:11:31;100376.64;;;7.17;69.21
61697;BME280;47610;52.252;20.922;2023-03-18T23:16:35;100374.05;;;7.09;68.45
61697;BME280;47610;52.252;20.922;2023-03-18T23:21:40;100382.88;;;7.09;69.08
61697;BME280;47610;52.252;20.922;2023-03-18T23:26:43;100385.92;;;7.04;69.73
61697;BME280;47610;52.252;20.922;2023-03-18T23:31:47;100386.45;;;6.98;70.23
61697;BME280;47610;52.252;20.922;2023-03-18T23:36:51;100387.20;;;6.93;71.04
61697;BME280;47610;52.252;20.922;2023-03-18T23:41:54;100385.61;;;6.86;71.88
61697;BME280;47610;52.252;20.922;2023-03-18T23:46:57;100381.90;;;6.80;72.35
61697;BME280;47610;52.252;20.922;2023-03-18T23:52:04;100373.98;;;6.73;72.72
61697;BME280;47610;52.252;20.922;2023-03-18T23:57:10;100378.41;;;6.65;73.22
